sensor_id;sensor_type;location;lat;lon;timestamp;temperature;humidity
69031;DHT22;56083;48.774;8.942;2023-02-02T00:01:25;5.00;99.90
69031;DHT22;56083;48.774;8.942;2023-02-02T00:03:51;5.00;99.90
69031;DHT22;56083;48.774;8.942;2023-02-02T00:06:22;5.00;99.90
69031;DHT22;56083;48.774;8.942;2023-02-02T00:08:48;5.10;99.90
69031;DHT22;56083;48.774;8.942;2023-02-02T00:11:15;5.10;99.90
69031;DHT22;56083;48.774;8.942;2023-02-02T00:13:41;5.10;99.90
69031;DHT22;56083;48.774;8.942;2023-02-02T00:18:58;5.10;99.90
69031;DHT22;56083;48.774;8.942;2023-02-02T00:21:24;5.10;99.90
69031;DHT22;56083;48.774;8.942;2023-02-02T00:23:50;5.10;99.90
69031;DHT22;56083;48.774;8.942;2023-02-02T00:26:16;5.10;99.90
69031;DHT22;56083;48.774;8.942;2023-02-02T00:28:42;5.10;99.90
69031;DHT22;56083;48.774;8.942;2023-02-02T00:31:10;5.20;99.90
69031;DHT22;56083;48.774;8.942;2023-02-02T00:33:35;5.10;99.90
69031;DHT22;56083;48.774;8.942;2023-02-02T00:36:02;5.10;99.90
69031;DHT22;56083;48.774;8.942;2023-02-02T00:38:28;5.10;99.90
69031;DHT22;56083;48.774;8.942;2023-02-02T00:40:54;5.10;99.90
69031;DHT22;56083;48.774;8.942;2023-02-02T00:43:19;5.10;99.90
69031;DHT22;56083;48.774;8.942;2023-02-02T00:45:45;5.10;99.90
69031;DHT22;56083;48.774;8.942;2023-02-02T00:48:11;5.10;99.90
69031;DHT22;56083;48.774;8.942;2023-02-02T00:50:37;5.20;99.90
69031;DHT22;56083;48.774;8.942;2023-02-02T00:53:03;5.10;99.90
69031;DHT22;56083;48.774;8.942;2023-02-02T00:55:28;5.10;99.90
69031;DHT22;56083;48.774;8.942;2023-02-02T00:57:54;5.20;99.90
69031;DHT22;56083;48.774;8.942;2023-02-02T01:00:22;5.20;99.90
69031;DHT22;56083;48.774;8.942;2023-02-02T01:02:49;5.20;99.90
69031;DHT22;56083;48.774;8.942;2023-02-02T01:05:15;5.20;99.90
69031;DHT22;56083;48.774;8.942;2023-02-02T01:07:41;5.10;99.90
69031;DHT22;56083;48.774;8.942;2023-02-02T01:10:11;5.10;99.90
69031;DHT22;56083;48.774;8.942;2023-02-02T01:12:38;5.10;99.90
69031;DHT22;56083;48.774;8.942;2023-02-02T01:15:04;5.00;99.90
69031;DHT22;56083;48.774;8.942;2023-02-02T01:17:30;5.00;99.90
69031;DHT22;56083;48.774;8.942;2023-02-02T01:19:55;4.90;99.90
69031;DHT22;56083;48.774;8.942;2023-02-02T01:22:21;4.80;99.90
69031;DHT22;56083;48.774;8.942;2023-02-02T01:24:47;4.80;99.90
69031;DHT22;56083;48.774;8.942;2023-02-02T01:27:12;4.80;99.90
69031;DHT22;56083;48.774;8.942;2023-02-02T01:29:38;4.70;99.90
69031;DHT22;56083;48.774;8.942;2023-02-02T01:32:04;4.70;99.90
69031;DHT22;56083;48.774;8.942;2023-02-02T01:34:29;4.60;99.90
69031;DHT22;56083;48.774;8.942;2023-02-02T01:36:55;4.60;99.90
69031;DHT22;56083;48.774;8.942;2023-02-02T01:39:21;4.60;99.90
69031;DHT22;56083;48.774;8.942;2023-02-02T01:41:46;4.60;99.90
69031;DHT22;56083;48.774;8.942;2023-02-02T01:47:16;4.60;99.90
69031;DHT22;56083;48.774;8.942;2023-02-02T01:49:42;4.60;99.90
69031;DHT22;56083;48.774;8.942;2023-02-02T01:52:08;4.70;99.90
69031;DHT22;56083;48.774;8.942;2023-02-02T01:54:38;4.70;99.90
69031;DHT22;56083;48.774;8.942;2023-02-02T01:57:11;4.70;99.90
69031;DHT22;56083;48.774;8.942;2023-02-02T01:59:40;4.80;99.90
69031;DHT22;56083;48.774;8.942;2023-02-02T02:02:06;4.80;99.90
69031;DHT22;56083;48.774;8.942;2023-02-02T02:04:32;4.80;99.90
69031;DHT22;56083;48.774;8.942;2023-02-02T02:06:59;4.80;99.90
69031;DHT22;56083;48.774;8.942;2023-02-02T02:09:26;4.90;99.90
69031;DHT22;56083;48.774;8.942;2023-02-02T02:11:54;4.90;99.90
69031;DHT22;56083;48.774;8.942;2023-02-02T02:14:20;4.90;99.90
69031;DHT22;56083;48.774;8.942;2023-02-02T02:20:40;4.90;99.90
69031;DHT22;56083;48.774;8.942;2023-02-02T02:41:18;5.00;99.90
69031;DHT22;56083;48.774;8.942;2023-02-02T02:43:19;5.00;99.90
69031;DHT22;56083;48.774;8.942;2023-02-02T02:45:46;5.00;99.90
69031;DHT22;56083;48.774;8.942;2023-02-02T02:48:11;4.90;99.90
69031;DHT22;56083;48.774;8.942;2023-02-02T02:50:38;5.00;99.90
69031;DHT22;56083;48.774;8.942;2023-02-02T02:53:21;5.00;99.90
69031;DHT22;56083;48.774;8.942;2023-02-02T02:56:37;5.00;99.90
69031;DHT22;56083;48.774;8.942;2023-02-02T02:59:06;5.00;99.90
69031;DHT22;56083;48.774;8.942;2023-02-02T03:01:38;5.00;99.90
69031;DHT22;56083;48.774;8.942;2023-02-02T03:04:32;5.00;99.90
69031;DHT22;56083;48.774;8.942;2023-02-02T03:07:21;5.00;99.90
69031;DHT22;56083;48.774;8.942;2023-02-02T03:09:50;5.00;99.90
69031;DHT22;56083;48.774;8.942;2023-02-02T03:12:17;5.10;99.90
69031;DHT22;56083;48.774;8.942;2023-02-02T03:14:43;5.10;99.90
69031;DHT22;56083;48.774;8.942;2023-02-02T03:17:08;5.10;99.90
69031;DHT22;56083;48.774;8.942;2023-02-02T03:19:34;5.10;99.90
69031;DHT22;56083;48.774;8.942;2023-02-02T03:21:59;5.20;99.90
69031;DHT22;56083;48.774;8.942;2023-02-02T03:24:25;5.10;99.90
69031;DHT22;56083;48.774;8.942;2023-02-02T03:26:51;5.20;99.90
69031;DHT22;56083;48.774;8.942;2023-02-02T03:29:17;5.20;99.90
69031;DHT22;56083;48.774;8.942;2023-02-02T03:31:43;5.20;99.90
69031;DHT22;56083;48.774;8.942;2023-02-02T03:34:09;5.20;99.90
69031;DHT22;56083;48.774;8.942;2023-02-02T03:36:34;5.10;99.90
69031;DHT22;56083;48.774;8.942;2023-02-02T03:39:00;5.10;99.90
69031;DHT22;56083;48.774;8.942;2023-02-02T03:41:26;5.10;99.90
69031;DHT22;56083;48.774;8.942;2023-02-02T03:43:51;5.10;99.90
69031;DHT22;56083;48.774;8.942;2023-02-02T03:46:17;5.20;99.90
69031;DHT22;56083;48.774;8.942;2023-02-02T03:48:42;5.10;99.90
69031;DHT22;56083;48.774;8.942;2023-02-02T03:51:13;5.10;99.90
69031;DHT22;56083;48.774;8.942;2023-02-02T03:53:39;5.10;99.90
69031;DHT22;56083;48.774;8.942;2023-02-02T03:56:06;5.10;99.90
69031;DHT22;56083;48.774;8.942;2023-02-02T03:58:31;5.10;99.90
69031;DHT22;56083;48.774;8.942;2023-02-02T04:01:05;5.10;99.90
69031;DHT22;56083;48.774;8.942;2023-02-02T04:03:31;5.20;99.90
69031;DHT22;56083;48.774;8.942;2023-02-02T04:05:56;5.20;99.90
69031;DHT22;56083;48.774;8.942;2023-02-02T04:08:22;5.20;99.90
69031;DHT22;56083;48.774;8.942;2023-02-02T04:10:48;5.20;99.90
69031;DHT22;56083;48.774;8.942;2023-02-02T04:13:13;5.20;99.90
69031;DHT22;56083;48.774;8.942;2023-02-02T04:15:39;5.20;99.90
69031;DHT22;56083;48.774;8.942;2023-02-02T04:18:05;5.20;99.90
69031;DHT22;56083;48.774;8.942;2023-02-02T04:20:31;5.20;99.90
69031;DHT22;56083;48.774;8.942;2023-02-02T04:22:56;5.20;99.90
69031;DHT22;56083;48.774;8.942;2023-02-02T04:25:22;5.10;99.90
69031;DHT22;56083;48.774;8.942;2023-02-02T04:27:48;5.10;99.90
69031;DHT22;56083;48.774;8.942;2023-02-02T04:30:13;5.10;99.90
69031;DHT22;56083;48.774;8.942;2023-02-02T04:32:39;5.10;99.90
69031;DHT22;56083;48.774;8.942;2023-02-02T04:35:05;5.10;99.90
69031;DHT22;56083;48.774;8.942;2023-02-02T04:37:31;5.20;99.90
69031;DHT22;56083;48.774;8.942;2023-02-02T04:39:57;5.20;99.90
69031;DHT22;56083;48.774;8.942;2023-02-02T04:42:23;5.20;99.90
69031;DHT22;56083;48.774;8.942;2023-02-02T04:44:48;5.20;99.90
69031;DHT22;56083;48.774;8.942;2023-02-02T04:47:14;5.20;99.90
69031;DHT22;56083;48.774;8.942;2023-02-02T04:49:40;5.20;99.90
69031;DHT22;56083;48.774;8.942;2023-02-02T04:52:05;5.20;99.90
69031;DHT22;56083;48.774;8.942;2023-02-02T04:54:32;5.20;99.90
69031;DHT22;56083;48.774;8.942;2023-02-02T04:56:58;5.30;99.90
69031;DHT22;56083;48.774;8.942;2023-02-02T04:59:23;5.20;99.90
69031;DHT22;56083;48.774;8.942;2023-02-02T05:01:49;5.30;99.90
69031;DHT22;56083;48.774;8.942;2023-02-02T05:04:15;5.30;99.90
69031;DHT22;56083;48.774;8.942;2023-02-02T05:06:41;5.30;99.90
69031;DHT22;56083;48.774;8.942;2023-02-02T05:09:06;5.30;99.90
69031;DHT22;56083;48.774;8.942;2023-02-02T05:11:33;5.30;99.90
69031;DHT22;56083;48.774;8.942;2023-02-02T05:13:58;5.30;99.90
69031;DHT22;56083;48.774;8.942;2023-02-02T05:16:24;5.30;99.90
69031;DHT22;56083;48.774;8.942;2023-02-02T05:18:54;5.30;99.90
69031;DHT22;56083;48.774;8.942;2023-02-02T05:21:21;5.30;99.90
69031;DHT22;56083;48.774;8.942;2023-02-02T05:23:47;5.30;99.90
69031;DHT22;56083;48.774;8.942;2023-02-02T05:26:21;5.30;99.90
69031;DHT22;56083;48.774;8.942;2023-02-02T05:28:48;5.30;99.90
69031;DHT22;56083;48.774;8.942;2023-02-02T05:31:14;5.30;99.90
69031;DHT22;56083;48.774;8.942;2023-02-02T05:33:39;5.30;99.90
69031;DHT22;56083;48.774;8.942;2023-02-02T05:36:06;5.30;99.90
69031;DHT22;56083;48.774;8.942;2023-02-02T05:38:32;5.30;99.90
69031;DHT22;56083;48.774;8.942;2023-02-02T05:40:57;5.30;99.90
69031;DHT22;56083;48.774;8.942;2023-02-02T05:43:24;5.30;99.90
69031;DHT22;56083;48.774;8.942;2023-02-02T05:45:50;5.30;99.90
69031;DHT22;56083;48.774;8.942;2023-02-02T05:48:16;5.30;99.90
69031;DHT22;56083;48.774;8.942;2023-02-02T05:50:44;5.30;99.90
69031;DHT22;56083;48.774;8.942;2023-02-02T05:53:13;5.30;99.90
69031;DHT22;56083;48.774;8.942;2023-02-02T05:55:40;5.30;99.90
69031;DHT22;56083;48.774;8.942;2023-02-02T05:58:05;5.30;99.90
69031;DHT22;56083;48.774;8.942;2023-02-02T06:00:31;5.30;99.90
69031;DHT22;56083;48.774;8.942;2023-02-02T06:02:56;5.30;99.90
69031;DHT22;56083;48.774;8.942;2023-02-02T06:05:22;5.30;99.90
69031;DHT22;56083;48.774;8.942;2023-02-02T06:07:48;5.30;99.90
69031;DHT22;56083;48.774;8.942;2023-02-02T06:10:13;5.30;99.90
69031;DHT22;56083;48.774;8.942;2023-02-02T06:12:39;5.30;99.90
69031;DHT22;56083;48.774;8.942;2023-02-02T06:15:05;5.30;99.90
69031;DHT22;56083;48.774;8.942;2023-02-02T06:17:31;5.30;99.90
69031;DHT22;56083;48.774;8.942;2023-02-02T06:19:56;5.30;99.90
69031;DHT22;56083;48.774;8.942;2023-02-02T06:22:22;5.30;99.90
69031;DHT22;56083;48.774;8.942;2023-02-02T06:24:48;5.30;99.90
69031;DHT22;56083;48.774;8.942;2023-02-02T06:27:13;5.30;99.90
69031;DHT22;56083;48.774;8.942;2023-02-02T06:29:39;5.30;99.90
69031;DHT22;56083;48.774;8.942;2023-02-02T06:32:04;5.30;99.90
69031;DHT22;56083;48.774;8.942;2023-02-02T06:34:30;5.30;99.90
69031;DHT22;56083;48.774;8.942;2023-02-02T06:36:55;5.30;99.90
69031;DHT22;56083;48.774;8.942;2023-02-02T06:39:21;5.30;99.90
69031;DHT22;56083;48.774;8.942;2023-02-02T06:41:47;5.20;99.90
69031;DHT22;56083;48.774;8.942;2023-02-02T06:44:13;5.30;99.90
69031;DHT22;56083;48.774;8.942;2023-02-02T06:46:40;5.30;99.90
69031;DHT22;56083;48.774;8.942;2023-02-02T06:49:06;5.30;99.90
69031;DHT22;56083;48.774;8.942;2023-02-02T06:51:31;5.30;99.90
69031;DHT22;56083;48.774;8.942;2023-02-02T06:53:57;5.30;99.90
69031;DHT22;56083;48.774;8.942;2023-02-02T06:56:22;5.30;99.90
69031;DHT22;56083;48.774;8.942;2023-02-02T06:58:48;5.30;99.90
69031;DHT22;56083;48.774;8.942;2023-02-02T07:01:14;5.30;99.90
69031;DHT22;56083;48.774;8.942;2023-02-02T07:03:40;5.30;99.90
69031;DHT22;56083;48.774;8.942;2023-02-02T07:06:23;5.30;99.90
69031;DHT22;56083;48.774;8.942;2023-02-02T07:08:49;5.30;99.90
69031;DHT22;56083;48.774;8.942;2023-02-02T07:11:16;5.30;99.90
69031;DHT22;56083;48.774;8.942;2023-02-02T07:13:43;5.40;99.90
69031;DHT22;56083;48.774;8.942;2023-02-02T07:16:09;5.30;99.90
69031;DHT22;56083;48.774;8.942;2023-02-02T07:18:34;5.30;99.90
69031;DHT22;56083;48.774;8.942;2023-02-02T07:21:04;5.30;99.90
69031;DHT22;56083;48.774;8.942;2023-02-02T07:23:31;5.30;99.90
69031;DHT22;56083;48.774;8.942;2023-02-02T07:26:05;5.30;99.90
69031;DHT22;56083;48.774;8.942;2023-02-02T07:28:31;5.30;99.90
69031;DHT22;56083;48.774;8.942;2023-02-02T07:30:58;5.30;99.90
69031;DHT22;56083;48.774;8.942;2023-02-02T07:33:24;5.30;99.90
69031;DHT22;56083;48.774;8.942;2023-02-02T07:35:50;5.30;99.90
69031;DHT22;56083;48.774;8.942;2023-02-02T07:38:16;5.40;99.90
69031;DHT22;56083;48.774;8.942;2023-02-02T07:40:42;5.30;99.90
69031;DHT22;56083;48.774;8.942;2023-02-02T07:43:08;5.30;99.90
69031;DHT22;56083;48.774;8.942;2023-02-02T07:45:34;5.40;99.90
69031;DHT22;56083;48.774;8.942;2023-02-02T07:48:00;5.40;99.90
69031;DHT22;56083;48.774;8.942;2023-02-02T07:50:28;5.40;99.90
69031;DHT22;56083;48.774;8.942;2023-02-02T07:52:54;5.40;99.90
69031;DHT22;56083;48.774;8.942;2023-02-02T07:55:19;5.40;99.90
69031;DHT22;56083;48.774;8.942;2023-02-02T07:57:45;5.40;99.90
69031;DHT22;56083;48.774;8.942;2023-02-02T08:00:11;5.50;99.90
69031;DHT22;56083;48.774;8.942;2023-02-02T08:02:37;5.50;99.90
69031;DHT22;56083;48.774;8.942;2023-02-02T08:05:03;5.60;99.90
69031;DHT22;56083;48.774;8.942;2023-02-02T08:07:33;5.60;99.90
69031;DHT22;56083;48.774;8.942;2023-02-02T08:09:59;5.70;99.90
69031;DHT22;56083;48.774;8.942;2023-02-02T08:12:24;5.70;99.90
69031;DHT22;56083;48.774;8.942;2023-02-02T08:14:51;5.70;99.90
69031;DHT22;56083;48.774;8.942;2023-02-02T08:17:16;5.70;99.90
69031;DHT22;56083;48.774;8.942;2023-02-02T08:19:43;5.70;99.90
69031;DHT22;56083;48.774;8.942;2023-02-02T08:22:08;5.70;99.90
69031;DHT22;56083;48.774;8.942;2023-02-02T08:24:34;5.70;99.90
69031;DHT22;56083;48.774;8.942;2023-02-02T08:27:06;5.70;99.90
69031;DHT22;56083;48.774;8.942;2023-02-02T08:29:31;5.80;99.90
69031;DHT22;56083;48.774;8.942;2023-02-02T08:31:57;5.80;99.90
69031;DHT22;56083;48.774;8.942;2023-02-02T08:34:24;5.80;99.90
69031;DHT22;56083;48.774;8.942;2023-02-02T08:36:50;5.90;99.90
69031;DHT22;56083;48.774;8.942;2023-02-02T08:39:15;5.90;99.90
69031;DHT22;56083;48.774;8.942;2023-02-02T08:41:41;5.90;99.90
69031;DHT22;56083;48.774;8.942;2023-02-02T08:44:08;6.00;99.90
69031;DHT22;56083;48.774;8.942;2023-02-02T08:46:34;6.00;99.90
69031;DHT22;56083;48.774;8.942;2023-02-02T08:49:00;6.10;99.90
69031;DHT22;56083;48.774;8.942;2023-02-02T08:51:26;6.10;99.90
69031;DHT22;56083;48.774;8.942;2023-02-02T08:53:51;6.10;99.90
69031;DHT22;56083;48.774;8.942;2023-02-02T08:56:19;6.10;99.90
69031;DHT22;56083;48.774;8.942;2023-02-02T08:58:53;6.00;99.90
69031;DHT22;56083;48.774;8.942;2023-02-02T09:01:27;6.00;99.90
69031;DHT22;56083;48.774;8.942;2023-02-02T09:03:54;5.90;99.90
69031;DHT22;56083;48.774;8.942;2023-02-02T09:06:20;5.90;99.90
69031;DHT22;56083;48.774;8.942;2023-02-02T09:08:47;5.90;99.90
69031;DHT22;56083;48.774;8.942;2023-02-02T09:11:15;5.80;99.90
69031;DHT22;56083;48.774;8.942;2023-02-02T09:13:42;5.70;99.90
69031;DHT22;56083;48.774;8.942;2023-02-02T09:16:11;5.70;99.90
69031;DHT22;56083;48.774;8.942;2023-02-02T09:18:38;5.70;99.90
69031;DHT22;56083;48.774;8.942;2023-02-02T09:21:06;5.80;99.90
69031;DHT22;56083;48.774;8.942;2023-02-02T09:23:34;5.80;99.90
69031;DHT22;56083;48.774;8.942;2023-02-02T09:26:09;5.80;99.90
69031;DHT22;56083;48.774;8.942;2023-02-02T09:28:37;5.80;99.90
69031;DHT22;56083;48.774;8.942;2023-02-02T09:31:03;5.80;99.90
69031;DHT22;56083;48.774;8.942;2023-02-02T09:33:28;5.80;99.90
69031;DHT22;56083;48.774;8.942;2023-02-02T09:35:54;5.80;99.90
69031;DHT22;56083;48.774;8.942;2023-02-02T09:38:20;5.80;99.90
69031;DHT22;56083;48.774;8.942;2023-02-02T09:40:45;5.80;99.90
69031;DHT22;56083;48.774;8.942;2023-02-02T09:46:33;5.80;99.90
69031;DHT22;56083;48.774;8.942;2023-02-02T09:48:53;5.80;99.90
69031;DHT22;56083;48.774;8.942;2023-02-02T09:51:22;5.80;99.90
69031;DHT22;56083;48.774;8.942;2023-02-02T09:53:55;5.70;99.90
69031;DHT22;56083;48.774;8.942;2023-02-02T09:56:47;5.80;99.90
69031;DHT22;56083;48.774;8.942;2023-02-02T09:59:18;5.80;99.90
69031;DHT22;56083;48.774;8.942;2023-02-02T10:01:46;5.80;99.90
69031;DHT22;56083;48.774;8.942;2023-02-02T10:06:48;5.80;99.90
69031;DHT22;56083;48.774;8.942;2023-02-02T10:12:34;5.90;99.90
69031;DHT22;56083;48.774;8.942;2023-02-02T10:20:20;5.90;99.90
69031;DHT22;56083;48.774;8.942;2023-02-02T10:22:47;6.00;99.90
69031;DHT22;56083;48.774;8.942;2023-02-02T10:25:14;6.00;99.90
69031;DHT22;56083;48.774;8.942;2023-02-02T10:27:46;6.10;99.90
69031;DHT22;56083;48.774;8.942;2023-02-02T10:30:22;6.10;99.90
69031;DHT22;56083;48.774;8.942;2023-02-02T10:32:56;6.10;99.90
69031;DHT22;56083;48.774;8.942;2023-02-02T10:35:41;6.20;99.90
69031;DHT22;56083;48.774;8.942;2023-02-02T10:38:27;6.20;99.90
69031;DHT22;56083;48.774;8.942;2023-02-02T10:44:05;6.20;99.90
69031;DHT22;56083;48.774;8.942;2023-02-02T10:46:44;6.10;99.90
69031;DHT22;56083;48.774;8.942;2023-02-02T10:49:28;6.10;99.90
69031;DHT22;56083;48.774;8.942;2023-02-02T10:54:41;6.00;99.90
69031;DHT22;56083;48.774;8.942;2023-02-02T10:57:11;5.90;99.90
69031;DHT22;56083;48.774;8.942;2023-02-02T11:00:03;5.90;99.90
69031;DHT22;56083;48.774;8.942;2023-02-02T11:02:30;5.90;99.90
69031;DHT22;56083;48.774;8.942;2023-02-02T11:04:56;5.90;99.90
69031;DHT22;56083;48.774;8.942;2023-02-02T11:07:40;6.00;99.90
69031;DHT22;56083;48.774;8.942;2023-02-02T11:10:06;5.90;99.90
69031;DHT22;56083;48.774;8.942;2023-02-02T11:12:34;5.90;99.90
69031;DHT22;56083;48.774;8.942;2023-02-02T11:15:28;5.90;99.90
69031;DHT22;56083;48.774;8.942;2023-02-02T11:17:51;5.90;99.90
69031;DHT22;56083;48.774;8.942;2023-02-02T11:20:32;5.90;99.90
69031;DHT22;56083;48.774;8.942;2023-02-02T11:23:00;5.90;99.90
69031;DHT22;56083;48.774;8.942;2023-02-02T11:25:30;5.90;99.90
69031;DHT22;56083;48.774;8.942;2023-02-02T11:27:57;6.00;99.90
69031;DHT22;56083;48.774;8.942;2023-02-02T11:30:36;6.10;99.90
69031;DHT22;56083;48.774;8.942;2023-02-02T11:36:04;6.20;99.90
69031;DHT22;56083;48.774;8.942;2023-02-02T11:38:31;6.20;99.90
69031;DHT22;56083;48.774;8.942;2023-02-02T11:43:37;6.10;99.90
69031;DHT22;56083;48.774;8.942;2023-02-02T11:46:23;6.10;99.90
69031;DHT22;56083;48.774;8.942;2023-02-02T11:51:26;6.00;99.90
69031;DHT22;56083;48.774;8.942;2023-02-02T11:54:02;6.00;99.90
69031;DHT22;56083;48.774;8.942;2023-02-02T11:56:34;6.00;99.90
69031;DHT22;56083;48.774;8.942;2023-02-02T11:59:01;5.90;99.90
69031;DHT22;56083;48.774;8.942;2023-02-02T12:01:34;5.90;99.90
69031;DHT22;56083;48.774;8.942;2023-02-02T12:04:02;5.90;99.90
69031;DHT22;56083;48.774;8.942;2023-02-02T12:06:45;5.90;99.90
69031;DHT22;56083;48.774;8.942;2023-02-02T12:09:13;5.80;99.90
69031;DHT22;56083;48.774;8.942;2023-02-02T12:12:02;5.80;99.90
69031;DHT22;56083;48.774;8.942;2023-02-02T12:14:57;5.80;99.90
69031;DHT22;56083;48.774;8.942;2023-02-02T12:17:41;5.80;99.90
69031;DHT22;56083;48.774;8.942;2023-02-02T12:42:07;5.20;99.90
69031;DHT22;56083;48.774;8.942;2023-02-02T12:50:19;5.10;99.90
69031;DHT22;56083;48.774;8.942;2023-02-02T12:58:31;5.10;99.90
69031;DHT22;56083;48.774;8.942;2023-02-02T13:01:38;5.10;99.90
69031;DHT22;56083;48.774;8.942;2023-02-02T13:04:38;5.10;99.90
69031;DHT22;56083;48.774;8.942;2023-02-02T13:10:07;5.00;99.90
69031;DHT22;56083;48.774;8.942;2023-02-02T13:12:42;5.00;99.90
69031;DHT22;56083;48.774;8.942;2023-02-02T13:15:15;5.00;99.90
69031;DHT22;56083;48.774;8.942;2023-02-02T13:17:58;4.90;99.90
69031;DHT22;56083;48.774;8.942;2023-02-02T13:20:40;4.90;99.90
69031;DHT22;56083;48.774;8.942;2023-02-02T13:23:14;4.90;99.90
69031;DHT22;56083;48.774;8.942;2023-02-02T13:26:01;4.90;99.90
69031;DHT22;56083;48.774;8.942;2023-02-02T13:28:35;4.90;99.90
69031;DHT22;56083;48.774;8.942;2023-02-02T13:31:06;4.90;99.90
69031;DHT22;56083;48.774;8.942;2023-02-02T13:33:34;5.00;99.90
69031;DHT22;56083;48.774;8.942;2023-02-02T13:36:04;5.00;99.90
69031;DHT22;56083;48.774;8.942;2023-02-02T13:38:32;5.00;99.90
69031;DHT22;56083;48.774;8.942;2023-02-02T13:41:03;5.10;99.90
69031;DHT22;56083;48.774;8.942;2023-02-02T13:43:44;5.10;99.90
69031;DHT22;56083;48.774;8.942;2023-02-02T13:46:41;5.10;99.90
69031;DHT22;56083;48.774;8.942;2023-02-02T14:02:49;5.30;99.90
69031;DHT22;56083;48.774;8.942;2023-02-02T14:05:31;5.30;99.90
69031;DHT22;56083;48.774;8.942;2023-02-02T14:15:58;5.40;99.90
69031;DHT22;56083;48.774;8.942;2023-02-02T14:26:51;5.60;99.90
69031;DHT22;56083;48.774;8.942;2023-02-02T14:34:35;5.70;99.90
69031;DHT22;56083;48.774;8.942;2023-02-02T14:40:10;5.90;99.90
69031;DHT22;56083;48.774;8.942;2023-02-02T14:49:40;5.90;99.90
69031;DHT22;56083;48.774;8.942;2023-02-02T14:51:49;6.00;99.90
69031;DHT22;56083;48.774;8.942;2023-02-02T14:54:29;6.00;99.90
69031;DHT22;56083;48.774;8.942;2023-02-02T14:57:02;6.00;99.90
69031;DHT22;56083;48.774;8.942;2023-02-02T14:59:35;6.00;99.90
69031;DHT22;56083;48.774;8.942;2023-02-02T15:02:21;6.00;99.90
69031;DHT22;56083;48.774;8.942;2023-02-02T15:04:48;6.00;99.90
69031;DHT22;56083;48.774;8.942;2023-02-02T15:09:49;6.00;99.90
69031;DHT22;56083;48.774;8.942;2023-02-02T15:12:17;6.00;99.90
69031;DHT22;56083;48.774;8.942;2023-02-02T15:26:16;5.90;99.90
69031;DHT22;56083;48.774;8.942;2023-02-02T15:28:52;5.90;99.90
69031;DHT22;56083;48.774;8.942;2023-02-02T15:31:35;5.90;99.90
69031;DHT22;56083;48.774;8.942;2023-02-02T15:36:46;5.90;99.90
69031;DHT22;56083;48.774;8.942;2023-02-02T15:41:51;5.90;99.90
69031;DHT22;56083;48.774;8.942;2023-02-02T15:44:38;5.90;99.90
69031;DHT22;56083;48.774;8.942;2023-02-02T15:47:08;5.90;99.90
69031;DHT22;56083;48.774;8.942;2023-02-02T15:49:37;5.90;99.90
69031;DHT22;56083;48.774;8.942;2023-02-02T15:52:17;5.90;99.90
69031;DHT22;56083;48.774;8.942;2023-02-02T15:54:51;5.90;99.90
69031;DHT22;56083;48.774;8.942;2023-02-02T15:57:43;5.90;99.90
69031;DHT22;56083;48.774;8.942;2023-02-02T16:00:35;5.90;99.90
69031;DHT22;56083;48.774;8.942;2023-02-02T16:03:13;5.90;99.90
69031;DHT22;56083;48.774;8.942;2023-02-02T16:05:48;5.90;99.90
69031;DHT22;56083;48.774;8.942;2023-02-02T16:08:23;5.90;99.90
69031;DHT22;56083;48.774;8.942;2023-02-02T16:10:49;5.90;99.90
69031;DHT22;56083;48.774;8.942;2023-02-02T16:13:25;5.90;99.90
69031;DHT22;56083;48.774;8.942;2023-02-02T16:15:57;5.90;99.90
69031;DHT22;56083;48.774;8.942;2023-02-02T16:18:23;5.90;99.90
69031;DHT22;56083;48.774;8.942;2023-02-02T16:20:50;5.90;99.90
69031;DHT22;56083;48.774;8.942;2023-02-02T16:23:24;5.90;99.90
69031;DHT22;56083;48.774;8.942;2023-02-02T16:25:56;5.90;99.90
69031;DHT22;56083;48.774;8.942;2023-02-02T16:28:22;5.90;99.90
69031;DHT22;56083;48.774;8.942;2023-02-02T16:30:49;5.90;99.90
69031;DHT22;56083;48.774;8.942;2023-02-02T16:33:42;5.90;99.90
69031;DHT22;56083;48.774;8.942;2023-02-02T16:36:18;5.90;99.90
69031;DHT22;56083;48.774;8.942;2023-02-02T16:38:44;5.90;99.90
69031;DHT22;56083;48.774;8.942;2023-02-02T16:41:13;5.80;99.90
69031;DHT22;56083;48.774;8.942;2023-02-02T16:43:48;5.80;99.90
69031;DHT22;56083;48.774;8.942;2023-02-02T16:46:14;5.80;99.90
69031;DHT22;56083;48.774;8.942;2023-02-02T16:48:56;5.80;99.90
69031;DHT22;56083;48.774;8.942;2023-02-02T16:51:26;5.80;99.90
69031;DHT22;56083;48.774;8.942;2023-02-02T16:54:12;5.80;99.90
69031;DHT22;56083;48.774;8.942;2023-02-02T16:56:50;5.80;99.90
69031;DHT22;56083;48.774;8.942;2023-02-02T16:59:30;5.70;99.90
69031;DHT22;56083;48.774;8.942;2023-02-02T17:02:03;5.70;99.90
69031;DHT22;56083;48.774;8.942;2023-02-02T17:04:32;5.70;99.90
69031;DHT22;56083;48.774;8.942;2023-02-02T17:07:24;5.70;99.90
69031;DHT22;56083;48.774;8.942;2023-02-02T17:10:22;5.60;99.90
69031;DHT22;56083;48.774;8.942;2023-02-02T17:12:48;5.60;99.90
69031;DHT22;56083;48.774;8.942;2023-02-02T17:17:46;5.60;99.90
69031;DHT22;56083;48.774;8.942;2023-02-02T17:20:13;5.60;99.90
69031;DHT22;56083;48.774;8.942;2023-02-02T17:22:42;5.60;99.90
69031;DHT22;56083;48.774;8.942;2023-02-02T17:25:26;5.50;99.90
69031;DHT22;56083;48.774;8.942;2023-02-02T17:27:53;5.50;99.90
69031;DHT22;56083;48.774;8.942;2023-02-02T17:30:19;5.50;99.90
69031;DHT22;56083;48.774;8.942;2023-02-02T17:32:45;5.40;99.90
69031;DHT22;56083;48.774;8.942;2023-02-02T17:35:15;5.40;99.90
69031;DHT22;56083;48.774;8.942;2023-02-02T17:37:41;5.40;99.90
69031;DHT22;56083;48.774;8.942;2023-02-02T17:40:17;5.40;99.90
69031;DHT22;56083;48.774;8.942;2023-02-02T17:42:44;5.40;99.90
69031;DHT22;56083;48.774;8.942;2023-02-02T17:45:18;5.40;99.90
69031;DHT22;56083;48.774;8.942;2023-02-02T17:47:44;5.40;99.90
69031;DHT22;56083;48.774;8.942;2023-02-02T17:50:10;5.40;99.90
69031;DHT22;56083;48.774;8.942;2023-02-02T17:52:36;5.40;99.90
69031;DHT22;56083;48.774;8.942;2023-02-02T17:55:10;5.40;99.90
69031;DHT22;56083;48.774;8.942;2023-02-02T17:57:37;5.40;99.90
69031;DHT22;56083;48.774;8.942;2023-02-02T18:00:03;5.30;99.90
69031;DHT22;56083;48.774;8.942;2023-02-02T18:02:29;5.30;99.90
69031;DHT22;56083;48.774;8.942;2023-02-02T18:04:55;5.30;99.90
69031;DHT22;56083;48.774;8.942;2023-02-02T18:07:20;5.30;99.90
69031;DHT22;56083;48.774;8.942;2023-02-02T18:09:46;5.30;99.90
69031;DHT22;56083;48.774;8.942;2023-02-02T18:12:11;5.30;99.90
69031;DHT22;56083;48.774;8.942;2023-02-02T18:14:37;5.40;99.90
69031;DHT22;56083;48.774;8.942;2023-02-02T18:17:03;5.40;99.90
69031;DHT22;56083;48.774;8.942;2023-02-02T18:19:30;5.40;99.90
69031;DHT22;56083;48.774;8.942;2023-02-02T18:21:55;5.30;99.90
69031;DHT22;56083;48.774;8.942;2023-02-02T18:24:21;5.30;99.90
69031;DHT22;56083;48.774;8.942;2023-02-02T18:26:46;5.30;99.90
69031;DHT22;56083;48.774;8.942;2023-02-02T18:29:12;5.30;99.90
69031;DHT22;56083;48.774;8.942;2023-02-02T18:31:38;5.20;99.90
69031;DHT22;56083;48.774;8.942;2023-02-02T18:34:04;5.20;99.90
69031;DHT22;56083;48.774;8.942;2023-02-02T18:36:29;5.20;99.90
69031;DHT22;56083;48.774;8.942;2023-02-02T18:38:55;5.10;99.90